sensor_id;sensor_type;location;lat;lon;timestamp;pressure;altitude;pressure_sealevel;temperature;humidity
12969;BME280;6549;53.128;8.182;2023-03-18T02:10:45;100469.03;;;10.17;100.00
12969;BME280;6549;53.128;8.182;2023-03-18T02:13:46;100468.63;;;10.15;100.00
12969;BME280;6549;53.128;8.182;2023-03-18T02:16:48;100466.28;;;10.21;100.00
12969;BME280;6549;53.128;8.182;2023-03-18T02:26:15;100451.78;;;10.38;100.00
12969;BME280;6549;53.128;8.182;2023-03-18T02:29:19;100471.81;;;10.56;100.00
12969;BME280;6549;53.128;8.182;2023-03-18T02:32:20;100459.22;;;10.45;100.00
12969;BME280;6549;53.128;8.182;2023-03-18T02:35:21;100462.00;;;10.52;100.00
12969;BME280;6549;53.128;8.182;2023-03-18T02:38:21;100476.91;;;10.47;100.00
12969;BME280;6549;53.128;8.182;2023-03-18T02:41:26;100468.28;;;10.49;100.00
12969;BME280;6549;53.128;8.182;2023-03-18T02:44:27;100476.91;;;10.47;100.00
12969;BME280;6549;53.128;8.182;2023-03-18T02:47:27;100475.75;;;10.48;100.00
12969;BME280;6549;53.128;8.182;2023-03-18T02:50:29;100479.28;;;10.49;100.00
12969;BME280;6549;53.128;8.182;2023-03-18T02:53:30;100487.91;;;10.47;100.00
12969;BME280;6549;53.128;8.182;2023-03-18T02:56:30;100484.78;;;10.52;100.00
12969;BME280;6549;53.128;8.182;2023-03-18T02:59:30;100487.09;;;10.54;100.00
12969;BME280;6549;53.128;8.182;2023-03-18T03:02:31;100491.81;;;10.46;100.00
12969;BME280;6549;53.128;8.182;2023-03-18T03:05:32;100497.31;;;10.50;100.00
12969;BME280;6549;53.128;8.182;2023-03-18T03:08:32;100502.03;;;10.53;100.00
12969;BME280;6549;53.128;8.182;2023-03-18T03:11:32;100495.34;;;10.54;100.00
12969;BME280;6549;53.128;8.182;2023-03-18T03:14:33;100507.53;;;10.53;100.00
12969;BME280;6549;53.128;8.182;2023-03-18T03:17:33;100493.38;;;10.51;100.00
12969;BME280;6549;53.128;8.182;2023-03-18T03:20:34;100501.25;;;10.49;100.00
12969;BME280;6549;53.128;8.182;2023-03-18T03:23:36;100507.13;;;10.51;100.00
12969;BME280;6549;53.128;8.182;2023-03-18T03:26:36;100509.09;;;10.47;100.00
12969;BME280;6549;53.128;8.182;2023-03-18T03:29:37;100517.34;;;10.43;100.00
12969;BME280;6549;53.128;8.182;2023-03-18T03:32:37;100518.50;;;10.42;100.00
12969;BME280;6549;53.128;8.182;2023-03-18T03:35:39;100513.41;;;10.44;100.00
12969;BME280;6549;53.128;8.182;2023-03-18T03:38:40;100515.38;;;10.47;100.00
12969;BME280;6549;53.128;8.182;2023-03-18T03:41:41;100510.25;;;10.39;100.00
12969;BME280;6549;53.128;8.182;2023-03-18T03:44:41;100520.03;;;10.36;100.00
12969;BME280;6549;53.128;8.182;2023-03-18T03:47:42;100523.56;;;10.26;100.00
12969;BME280;6549;53.128;8.182;2023-03-18T03:50:42;100532.59;;;10.26;100.00
12969;BME280;6549;53.128;8.182;2023-03-18T03:53:43;100529.06;;;10.29;100.00
12969;BME280;6549;53.128;8.182;2023-03-18T03:56:45;100536.50;;;10.25;100.00
12969;BME280;6549;53.128;8.182;2023-03-18T03:59:45;100538.06;;;10.19;100.00
12969;BME280;6549;53.128;8.182;2023-03-18T04:02:45;100545.91;;;10.24;100.00
12969;BME280;6549;53.128;8.182;2023-03-18T04:05:46;100544.72;;;10.18;100.00
12969;BME280;6549;53.128;8.182;2023-03-18T04:08:46;100542.38;;;10.17;100.00
12969;BME280;6549;53.128;8.182;2023-03-18T04:11:47;100541.94;;;10.11;100.00
12969;BME280;6549;53.128;8.182;2023-03-18T04:14:47;100545.03;;;10.06;100.00
12969;BME280;6549;53.128;8.182;2023-03-18T04:17:49;100537.19;;;10.05;100.00
12969;BME280;6549;53.128;8.182;2023-03-18T04:20:49;100538.75;;;9.95;100.00
12969;BME280;6549;53.128;8.182;2023-03-18T04:23:49;100546.91;;;9.84;100.00
12969;BME280;6549;53.128;8.182;2023-03-18T04:26:49;100549.66;;;9.81;100.00
12969;BME280;6549;53.128;8.182;2023-03-18T04:29:50;100555.50;;;9.72;100.00
12969;BME280;6549;53.128;8.182;2023-03-18T04:32:50;100555.44;;;9.65;100.00
12969;BME280;6549;53.128;8.182;2023-03-18T04:35:51;100566.00;;;9.60;100.00
12969;BME280;6549;53.128;8.182;2023-03-18T04:38:52;100577.72;;;9.57;100.00
12969;BME280;6549;53.128;8.182;2023-03-18T04:41:53;100571.50;;;9.60;100.00
12969;BME280;6549;53.128;8.182;2023-03-18T04:44:55;100578.50;;;9.54;100.00
12969;BME280;6549;53.128;8.182;2023-03-18T04:47:56;100577.69;;;9.50;100.00
12969;BME280;6549;53.128;8.182;2023-03-18T04:50:57;100577.72;;;9.53;100.00
12969;BME280;6549;53.128;8.182;2023-03-18T04:53:57;100581.25;;;9.54;100.00
12969;BME280;6549;53.128;8.182;2023-03-18T04:56:57;100575.34;;;9.52;100.00
12969;BME280;6549;53.128;8.182;2023-03-18T04:59:58;100573.78;;;9.51;100.00
12969;BME280;6549;53.128;8.182;2023-03-18T05:02:58;100571.03;;;9.51;100.00
12969;BME280;6549;53.128;8.182;2023-03-18T05:05:58;100570.63;;;9.48;100.00
12969;BME280;6549;53.128;8.182;2023-03-18T05:08:59;100575.72;;;9.46;100.00
12969;BME280;6549;53.128;8.182;2023-03-18T05:12:00;100569.44;;;9.46;100.00
12969;BME280;6549;53.128;8.182;2023-03-18T05:15:00;100572.97;;;9.46;100.00
12969;BME280;6549;53.128;8.182;2023-03-18T05:18:01;100579.63;;;9.45;100.00
12969;BME280;6549;53.128;8.182;2023-03-18T05:21:01;100584.69;;;9.40;100.00
12969;BME280;6549;53.128;8.182;2023-03-18T05:24:02;100574.91;;;9.42;100.00
12969;BME280;6549;53.128;8.182;2023-03-18T05:27:02;100585.47;;;9.44;100.00
12969;BME280;6549;53.128;8.182;2023-03-18T05:30:03;100592.91;;;9.43;100.00
12969;BME280;6549;53.128;8.182;2023-03-18T05:33:04;100590.16;;;9.40;100.00
12969;BME280;6549;53.128;8.182;2023-03-18T05:36:04;100589.38;;;9.39;100.00
12969;BME280;6549;53.128;8.182;2023-03-18T05:39:04;100591.75;;;9.41;100.00
12969;BME280;6549;53.128;8.182;2023-03-18T05:42:05;100591.72;;;9.37;100.00
12969;BME280;6549;53.128;8.182;2023-03-18T05:45:05;100597.56;;;9.36;100.00
12969;BME280;6549;53.128;8.182;2023-03-18T05:48:06;100604.25;;;9.38;100.00
12969;BME280;6549;53.128;8.182;2023-03-18T05:51:06;100608.56;;;9.39;100.00
12969;BME280;6549;53.128;8.182;2023-03-18T05:54:07;100609.38;;;9.43;100.00
12969;BME280;6549;53.128;8.182;2023-03-18T05:57:08;100603.09;;;9.43;100.00
12969;BME280;6549;53.128;8.182;2023-03-18T06:00:09;100612.94;;;9.47;100.00
12969;BME280;6549;53.128;8.182;2023-03-18T06:03:09;100610.59;;;9.50;100.00
12969;BME280;6549;53.128;8.182;2023-03-18T06:06:09;100616.88;;;9.50;100.00
12969;BME280;6549;53.128;8.182;2023-03-18T06:09:10;100617.69;;;9.51;100.00
12969;BME280;6549;53.128;8.182;2023-03-18T06:12:11;100615.38;;;9.60;100.00
12969;BME280;6549;53.128;8.182;2023-03-18T06:15:12;100624.78;;;9.59;100.00
12969;BME280;6549;53.128;8.182;2023-03-18T06:18:12;100628.69;;;9.58;100.00
12969;BME280;6549;53.128;8.182;2023-03-18T06:21:13;100630.63;;;9.57;100.00
12969;BME280;6549;53.128;8.182;2023-03-18T06:24:14;100634.94;;;9.55;100.00
12969;BME280;6549;53.128;8.182;2023-03-18T06:27:15;100630.25;;;9.55;100.00
12969;BME280;6549;53.128;8.182;2023-03-18T06:30:15;100653.78;;;9.60;100.00
12969;BME280;6549;53.128;8.182;2023-03-18T06:33:16;100645.16;;;9.58;100.00
12969;BME280;6549;53.128;8.182;2023-03-18T06:36:17;100643.56;;;9.57;100.00
12969;BME280;6549;53.128;8.182;2023-03-18T06:39:18;100655.31;;;9.57;100.00
12969;BME280;6549;53.128;8.182;2023-03-18T06:42:18;100649.44;;;9.55;100.00
12969;BME280;6549;53.128;8.182;2023-03-18T06:45:19;100654.53;;;9.57;100.00
12969;BME280;6549;53.128;8.182;2023-03-18T06:48:20;100651.41;;;9.55;100.00
12969;BME280;6549;53.128;8.182;2023-03-18T06:51:20;100663.19;;;9.59;100.00
12969;BME280;6549;53.128;8.182;2023-03-18T06:54:20;100673.34;;;9.55;100.00
12969;BME280;6549;53.128;8.182;2023-03-18T06:57:21;100678.84;;;9.55;100.00
12969;BME280;6549;53.128;8.182;2023-03-18T07:00:21;100679.63;;;9.55;100.00
12969;BME280;6549;53.128;8.182;2023-03-18T07:03:22;100663.56;;;9.61;100.00
12969;BME280;6549;53.128;8.182;2023-03-18T07:06:22;100672.22;;;9.59;100.00
12969;BME280;6549;53.128;8.182;2023-03-18T07:09:23;100671.81;;;9.61;100.00
12969;BME280;6549;53.128;8.182;2023-03-18T07:12:23;100674.19;;;9.62;100.00
12969;BME280;6549;53.128;8.182;2023-03-18T07:15:23;100681.63;;;9.62;100.00
12969;BME280;6549;53.128;8.182;2023-03-18T07:18:25;100691.44;;;9.63;100.00
12969;BME280;6549;53.128;8.182;2023-03-18T07:21:26;100683.59;;;9.65;100.00
12969;BME280;6549;53.128;8.182;2023-03-18T07:24:26;100689.50;;;9.67;100.00
12969;BME280;6549;53.128;8.182;2023-03-18T07:27:27;100690.69;;;9.69;100.00
12969;BME280;6549;53.128;8.182;2023-03-18T07:30:28;100704.44;;;9.73;100.00
12969;BME280;6549;53.128;8.182;2023-03-18T07:33:29;100705.25;;;9.77;100.00
12969;BME280;6549;53.128;8.182;2023-03-18T07:36:29;100696.25;;;9.80;100.00
12969;BME280;6549;53.128;8.182;2023-03-18T07:39:30;100712.81;;;9.90;100.00
12969;BME280;6549;53.128;8.182;2023-03-18T07:42:30;100721.44;;;9.92;100.00
12969;BME280;6549;53.128;8.182;2023-03-18T07:45:31;100730.88;;;9.95;100.00
12969;BME280;6549;53.128;8.182;2023-03-18T07:48:31;100727.41;;;10.05;100.00
12969;BME280;6549;53.128;8.182;2023-03-18T07:51:33;100736.09;;;10.14;100.00
12969;BME280;6549;53.128;8.182;2023-03-18T07:54:33;100731.84;;;10.20;100.00
12969;BME280;6549;53.128;8.182;2023-03-18T07:57:33;100734.25;;;10.25;100.00
12969;BME280;6549;53.128;8.182;2023-03-18T08:00:34;100733.84;;;10.27;100.00
12969;BME280;6549;53.128;8.182;2023-03-18T08:03:34;100728.41;;;10.34;100.00
12969;BME280;6549;53.128;8.182;2023-03-18T08:06:35;100743.69;;;10.31;100.00
12969;BME280;6549;53.128;8.182;2023-03-18T08:09:35;100753.50;;;10.32;100.00
12969;BME280;6549;53.128;8.182;2023-03-18T08:12:35;100750.78;;;10.36;100.00
12969;BME280;6549;53.128;8.182;2023-03-18T08:15:36;100757.06;;;10.40;100.00
12969;BME280;6549;53.128;8.182;2023-03-18T08:18:36;100758.28;;;10.43;100.00
12969;BME280;6549;53.128;8.182;2023-03-18T08:21:36;100761.91;;;10.57;100.00
12969;BME280;6549;53.128;8.182;2023-03-18T08:24:37;100763.88;;;10.64;100.00
12969;BME280;6549;53.128;8.182;2023-03-18T08:27:37;100762.38;;;10.77;100.00
12969;BME280;6549;53.128;8.182;2023-03-18T08:30:38;100758.53;;;10.96;100.00
12969;BME280;6549;53.128;8.182;2023-03-18T08:33:38;100771.53;;;11.06;100.00
12969;BME280;6549;53.128;8.182;2023-03-18T08:36:39;100777.03;;;11.20;100.00
12969;BME280;6549;53.128;8.182;2023-03-18T08:39:40;100781.41;;;11.39;100.00
12969;BME280;6549;53.128;8.182;2023-03-18T08:42:42;100783.41;;;11.56;100.00
12969;BME280;6549;53.128;8.182;2023-03-18T08:45:44;100790.91;;;11.66;100.00
12969;BME280;6549;53.128;8.182;2023-03-18T08:48:44;100788.56;;;11.82;100.00
12969;BME280;6549;53.128;8.182;2023-03-18T08:51:45;100787.41;;;12.11;100.00
12969;BME280;6549;53.128;8.182;2023-03-18T08:54:45;100784.56;;;12.61;100.00
12969;BME280;6549;53.128;8.182;2023-03-18T08:57:46;100787.13;;;13.18;100.00
12969;BME280;6549;53.128;8.182;2023-03-18T09:00:47;100785.38;;;13.45;100.00
12969;BME280;6549;53.128;8.182;2023-03-18T09:03:49;100779.84;;;13.48;100.00
12969;BME280;6549;53.128;8.182;2023-03-18T09:06:49;100775.38;;;14.13;100.00
12969;BME280;6549;53.128;8.182;2023-03-18T09:09:49;100778.72;;;15.06;100.00
12969;BME280;6549;53.128;8.182;2023-03-18T09:12:50;100787.22;;;15.49;100.00
12969;BME280;6549;53.128;8.182;2023-03-18T09:15:50;100791.28;;;15.95;100.00
12969;BME280;6549;53.128;8.182;2023-03-18T09:18:50;100789.53;;;16.04;100.00
12969;BME280;6549;53.128;8.182;2023-03-18T09:21:51;100792.56;;;15.63;100.00
12969;BME280;6549;53.128;8.182;2023-03-18T09:24:51;100793.72;;;15.36;100.00
12969;BME280;6549;53.128;8.182;2023-03-18T09:27:51;100795.19;;;15.17;100.00
12969;BME280;6549;53.128;8.182;2023-03-18T09:30:52;100799.31;;;15.02;100.00
12969;BME280;6549;53.128;8.182;2023-03-18T09:33:52;100805.41;;;14.90;100.00
12969;BME280;6549;53.128;8.182;2023-03-18T09:36:52;100812.63;;;14.80;100.00
12969;BME280;6549;53.128;8.182;2023-03-18T09:39:52;100807.59;;;14.71;100.00
12969;BME280;6549;53.128;8.182;2023-03-18T09:45:57;100810.31;;;14.75;100.00
12969;BME280;6549;53.128;8.182;2023-03-18T09:52:20;100815.75;;;14.86;100.00
12969;BME280;6549;53.128;8.182;2023-03-18T09:58:30;100826.34;;;14.53;100.00
12969;BME280;6549;53.128;8.182;2023-03-18T10:01:34;100826.56;;;14.28;100.00
12969;BME280;6549;53.128;8.182;2023-03-18T10:04:39;100829.47;;;14.14;100.00
12969;BME280;6549;53.128;8.182;2023-03-18T10:07:40;100829.56;;;14.00;100.00
12969;BME280;6549;53.128;8.182;2023-03-18T10:10:43;100826.84;;;13.97;100.00
12969;BME280;6549;53.128;8.182;2023-03-18T10:13:52;100828.75;;;14.07;100.00
12969;BME280;6549;53.128;8.182;2023-03-18T10:17:00;100838.63;;;14.01;100.00
12969;BME280;6549;53.128;8.182;2023-03-18T10:20:04;100827.63;;;13.97;100.00
12969;BME280;6549;53.128;8.182;2023-03-18T10:26:33;100841.06;;;13.91;100.00
12969;BME280;6549;53.128;8.182;2023-03-18T10:29:43;100847.00;;;13.93;100.00
12969;BME280;6549;53.128;8.182;2023-03-18T10:35:59;100849.69;;;14.01;100.00
12969;BME280;6549;53.128;8.182;2023-03-18T10:39:01;100843.38;;;14.00;100.00
12969;BME280;6549;53.128;8.182;2023-03-18T10:42:19;100856.38;;;14.07;100.00
12969;BME280;6549;53.128;8.182;2023-03-18T10:45:30;100861.91;;;14.07;100.00
12969;BME280;6549;53.128;8.182;2023-03-18T10:48:36;100858.25;;;14.17;100.00
12969;BME280;6549;53.128;8.182;2023-03-18T10:51:41;100859.78;;;14.21;100.00
12969;BME280;6549;53.128;8.182;2023-03-18T10:54:43;100859.88;;;14.11;100.00
12969;BME280;6549;53.128;8.182;2023-03-18T10:57:51;100859.00;;;14.21;100.00
12969;BME280;6549;53.128;8.182;2023-03-18T11:00:51;100860.53;;;14.29;100.00
12969;BME280;6549;53.128;8.182;2023-03-18T11:03:53;100862.03;;;14.41;100.00
12969;BME280;6549;53.128;8.182;2023-03-18T11:06:59;100860.41;;;14.47;100.00
12969;BME280;6549;53.128;8.182;2023-03-18T11:10:15;100859.09;;;14.58;100.00
12969;BME280;6549;53.128;8.182;2023-03-18T11:13:18;100857.47;;;14.61;100.00
12969;BME280;6549;53.128;8.182;2023-03-18T11:16:38;100860.25;;;14.61;100.00
12969;BME280;6549;53.128;8.182;2023-03-18T11:19:44;100860.22;;;14.64;100.00
12969;BME280;6549;53.128;8.182;2023-03-18T11:22:49;100860.50;;;14.77;100.00
12969;BME280;6549;53.128;8.182;2023-03-18T11:25:54;100864.88;;;15.08;100.00
12969;BME280;6549;53.128;8.182;2023-03-18T11:29:04;100864.31;;;15.54;100.00
12969;BME280;6549;53.128;8.182;2023-03-18T11:32:26;100877.72;;;15.86;100.00
12969;BME280;6549;53.128;8.182;2023-03-18T11:35:35;100875.75;;;15.87;100.00
12969;BME280;6549;53.128;8.182;2023-03-18T11:38:36;100873.81;;;15.84;100.00
12969;BME280;6549;53.128;8.182;2023-03-18T11:41:38;100876.66;;;15.77;100.00
12969;BME280;6549;53.128;8.182;2023-03-18T11:44:39;100866.50;;;15.70;100.00
12969;BME280;6549;53.128;8.182;2023-03-18T11:47:39;100872.09;;;15.66;100.00
12969;BME280;6549;53.128;8.182;2023-03-18T11:50:53;100867.94;;;15.78;100.00
12969;BME280;6549;53.128;8.182;2023-03-18T11:57:41;100878.03;;;15.92;100.00
12969;BME280;6549;53.128;8.182;2023-03-18T12:01:10;100874.16;;;15.86;100.00
12969;BME280;6549;53.128;8.182;2023-03-18T12:08:12;100870.13;;;15.90;100.00
12969;BME280;6549;53.128;8.182;2023-03-18T12:15:21;100865.16;;;16.51;100.00
12969;BME280;6549;53.128;8.182;2023-03-18T12:18:47;100873.31;;;16.85;100.00
12969;BME280;6549;53.128;8.182;2023-03-18T12:22:22;100870.91;;;17.07;100.00
12969;BME280;6549;53.128;8.182;2023-03-18T12:28:41;100861.13;;;17.58;100.00
12969;BME280;6549;53.128;8.182;2023-03-18T12:32:24;100870.66;;;17.77;100.00
12969;BME280;6549;53.128;8.182;2023-03-18T12:36:02;100869.44;;;17.94;100.00
12969;BME280;6549;53.128;8.182;2023-03-18T12:42:22;100870.78;;;18.22;100.00
12969;BME280;6549;53.128;8.182;2023-03-18T12:45:34;100862.34;;;18.09;100.00
12969;BME280;6549;53.128;8.182;2023-03-18T12:48:44;100863.31;;;18.19;100.00
12969;BME280;6549;53.128;8.182;2023-03-18T12:52:10;100867.38;;;18.30;100.00
12969;BME280;6549;53.128;8.182;2023-03-18T12:55:32;100861.78;;;18.47;100.00
12969;BME280;6549;53.128;8.182;2023-03-18T12:59:30;100855.31;;;18.53;100.00
12969;BME280;6549;53.128;8.182;2023-03-18T13:05:54;100858.22;;;19.07;100.00
12969;BME280;6549;53.128;8.182;2023-03-18T13:12:34;100856.94;;;18.67;100.00
12969;BME280;6549;53.128;8.182;2023-03-18T13:15:43;100849.22;;;18.58;100.00
12969;BME280;6549;53.128;8.182;2023-03-18T13:18:51;100854.16;;;18.34;100.00
12969;BME280;6549;53.128;8.182;2023-03-18T13:22:24;100839.72;;;18.56;100.00
12969;BME280;6549;53.128;8.182;2023-03-18T13:25:49;100855.09;;;18.28;100.00
12969;BME280;6549;53.128;8.182;2023-03-18T13:40:34;100847.53;;;18.28;100.00
12969;BME280;6549;53.128;8.182;2023-03-18T13:43:17;100840.59;;;18.53;100.00
12969;BME280;6549;53.128;8.182;2023-03-18T13:46:22;100849.38;;;19.09;100.00
12969;BME280;6549;53.128;8.182;2023-03-18T13:49:27;100839.41;;;18.82;100.00
12969;BME280;6549;53.128;8.182;2023-03-18T13:52:35;100838.06;;;18.58;100.00
12969;BME280;6549;53.128;8.182;2023-03-18T13:58:45;100850.44;;;18.09;100.00
12969;BME280;6549;53.128;8.182;2023-03-18T14:01:51;100845.81;;;18.34;100.00
12969;BME280;6549;53.128;8.182;2023-03-18T14:04:51;100843.47;;;18.33;100.00
12969;BME280;6549;53.128;8.182;2023-03-18T14:07:54;100834.16;;;18.23;100.00
12969;BME280;6549;53.128;8.182;2023-03-18T14:17:55;100841.72;;;18.39;100.00
12969;BME280;6549;53.128;8.182;2023-03-18T14:20:59;100843.72;;;18.38;100.00
12969;BME280;6549;53.128;8.182;2023-03-18T14:24:12;100834.78;;;18.31;100.00
12969;BME280;6549;53.128;8.182;2023-03-18T14:27:17;100846.63;;;18.19;100.00
12969;BME280;6549;53.128;8.182;2023-03-18T14:33:46;100846.59;;;18.67;100.00
12969;BME280;6549;53.128;8.182;2023-03-18T14:39:54;100843.88;;;18.48;100.00
12969;BME280;6549;53.128;8.182;2023-03-18T14:43:00;100839.72;;;18.39;100.00
12969;BME280;6549;53.128;8.182;2023-03-18T14:46:04;100842.34;;;18.30;100.00
12969;BME280;6549;53.128;8.182;2023-03-18T14:49:33;100833.38;;;18.39;100.00
12969;BME280;6549;53.128;8.182;2023-03-18T14:52:38;100833.28;;;18.42;100.00
12969;BME280;6549;53.128;8.182;2023-03-18T14:55:39;100829.88;;;18.51;100.00
12969;BME280;6549;53.128;8.182;2023-03-18T14:58:39;100832.34;;;18.33;100.00
12969;BME280;6549;53.128;8.182;2023-03-18T15:01:44;100828.44;;;18.30;100.00
12969;BME280;6549;53.128;8.182;2023-03-18T15:04:52;100827.91;;;18.19;100.00
12969;BME280;6549;53.128;8.182;2023-03-18T15:07:54;100835.63;;;18.28;100.00
12969;BME280;6549;53.128;8.182;2023-03-18T15:10:55;100829.47;;;18.20;100.00
12969;BME280;6549;53.128;8.182;2023-03-18T15:13:55;100832.78;;;18.15;100.00
12969;BME280;6549;53.128;8.182;2023-03-18T15:17:02;100826.53;;;17.95;100.00
12969;BME280;6549;53.128;8.182;2023-03-18T15:20:03;100820.84;;;17.66;100.00
12969;BME280;6549;53.128;8.182;2023-03-18T15:23:06;100822.53;;;17.80;100.00
12969;BME280;6549;53.128;8.182;2023-03-18T15:26:23;100814.00;;;17.71;100.00
12969;BME280;6549;53.128;8.182;2023-03-18T15:29:42;100816.06;;;17.67;100.00
12969;BME280;6549;53.128;8.182;2023-03-18T15:33:00;100816.03;;;17.50;100.00
12969;BME280;6549;53.128;8.182;2023-03-18T15:36:13;100820.19;;;17.42;100.00
12969;BME280;6549;53.128;8.182;2023-03-18T15:39:32;100817.22;;;17.14;100.00
12969;BME280;6549;53.128;8.182;2023-03-18T15:42:34;100814.69;;;17.03;100.00
12969;BME280;6549;53.128;8.182;2023-03-18T15:45:39;100814.47;;;16.94;100.00
12969;BME280;6549;53.128;8.182;2023-03-18T15:48:49;100811.03;;;16.86;100.00
12969;BME280;6549;53.128;8.182;2023-03-18T15:52:00;100808.78;;;16.81;100.00
12969;BME280;6549;53.128;8.182;2023-03-18T15:55:01;100816.94;;;16.69;100.00
12969;BME280;6549;53.128;8.182;2023-03-18T15:58:04;100807.56;;;16.63;100.00
12969;BME280;6549;53.128;8.182;2023-03-18T16:01:17;100810.84;;;16.54;100.00
12969;BME280;6549;53.128;8.182;2023-03-18T16:04:18;100808.91;;;16.51;100.00
12969;BME280;6549;53.128;8.182;2023-03-18T16:07:20;100813.47;;;16.41;100.00
12969;BME280;6549;53.128;8.182;2023-03-18T16:10:27;100816.72;;;16.36;100.00
12969;BME280;6549;53.128;8.182;2023-03-18T16:13:29;100818.78;;;16.32;100.00
12969;BME280;6549;53.128;8.182;2023-03-18T16:16:32;100818.94;;;16.22;100.00
12969;BME280;6549;53.128;8.182;2023-03-18T16:19:33;100818.78;;;16.09;100.00
12969;BME280;6549;53.128;8.182;2023-03-18T16:22:33;100821.22;;;16.03;100.00
12969;BME280;6549;53.128;8.182;2023-03-18T16:25:34;100826.84;;;16.00;100.00
12969;BME280;6549;53.128;8.182;2023-03-18T16:28:34;100821.41;;;15.93;100.00
12969;BME280;6549;53.128;8.182;2023-03-18T16:31:34;100820.69;;;15.89;100.00
12969;BME280;6549;53.128;8.182;2023-03-18T16:34:35;100827.84;;;15.86;100.00
12969;BME280;6549;53.128;8.182;2023-03-18T16:37:35;100837.47;;;15.78;100.00
12969;BME280;6549;53.128;8.182;2023-03-18T16:40:36;100837.09;;;15.76;100.00
12969;BME280;6549;53.128;8.182;2023-03-18T16:43:36;100836.75;;;15.74;100.00
12969;BME280;6549;53.128;8.182;2023-03-18T16:46:37;100828.50;;;15.70;100.00
12969;BME280;6549;53.128;8.182;2023-03-18T16:49:39;100838.47;;;15.64;100.00
12969;BME280;6549;53.128;8.182;2023-03-18T16:52:40;100840.13;;;15.58;100.00
12969;BME280;6549;53.128;8.182;2023-03-18T16:55:43;100840.63;;;15.53;100.00
12969;BME280;6549;53.128;8.182;2023-03-18T16:58:44;100841.44;;;15.50;100.00
12969;BME280;6549;53.128;8.182;2023-03-18T17:01:45;100839.88;;;15.46;100.00
12969;BME280;6549;53.128;8.182;2023-03-18T17:04:45;100841.97;;;15.38;100.00
12969;BME280;6549;53.128;8.182;2023-03-18T17:07:46;100843.56;;;15.36;100.00
12969;BME280;6549;53.128;8.182;2023-03-18T17:10:50;100848.81;;;15.30;100.00
12969;BME280;6549;53.128;8.182;2023-03-18T17:13:52;100847.69;;;15.24;100.00
12969;BME280;6549;53.128;8.182;2023-03-18T17:16:54;100850.09;;;15.22;100.00
12969;BME280;6549;53.128;8.182;2023-03-18T17:19:55;100850.91;;;15.19;100.00
12969;BME280;6549;53.128;8.182;2023-03-18T17:22:56;100847.00;;;15.16;100.00
12969;BME280;6549;53.128;8.182;2023-03-18T17:25:59;100855.84;;;15.04;100.00
12969;BME280;6549;53.128;8.182;2023-03-18T17:28:59;100856.34;;;14.92;100.00
12969;BME280;6549;53.128;8.182;2023-03-18T17:31:59;100857.59;;;14.88;100.00
12969;BME280;6549;53.128;8.182;2023-03-18T17:35:00;100857.25;;;14.86;100.00
12969;BME280;6549;53.128;8.182;2023-03-18T17:38:01;100859.31;;;14.74;100.00
12969;BME280;6549;53.128;8.182;2023-03-18T17:41:03;100857.38;;;14.71;100.00
12969;BME280;6549;53.128;8.182;2023-03-18T17:44:21;100855.00;;;14.70;100.00
12969;BME280;6549;53.128;8.182;2023-03-18T17:47:23;100863.34;;;14.66;100.00
12969;BME280;6549;53.128;8.182;2023-03-18T17:50:23;100855.81;;;14.70;100.00
12969;BME280;6549;53.128;8.182;2023-03-18T17:53:32;100859.81;;;14.66;100.00
12969;BME280;6549;53.128;8.182;2023-03-18T17:56:33;100876.88;;;14.57;100.00
12969;BME280;6549;53.128;8.182;2023-03-18T17:59:35;100878.53;;;14.51;100.00
12969;BME280;6549;53.128;8.182;2023-03-18T18:02:35;100879.34;;;14.48;100.00
12969;BME280;6549;53.128;8.182;2023-03-18T18:05:36;100880.59;;;14.40;100.00
12969;BME280;6549;53.128;8.182;2023-03-18T18:08:37;100887.72;;;14.37;100.00
12969;BME280;6549;53.128;8.182;2023-03-18T18:11:45;100890.47;;;14.34;100.00
12969;BME280;6549;53.128;8.182;2023-03-18T18:14:46;100872.38;;;14.26;100.00
12969;BME280;6549;53.128;8.182;2023-03-18T18:17:46;100875.97;;;14.23;100.00
12969;BME280;6549;53.128;8.182;2023-03-18T18:20:51;100874.81;;;14.17;100.00
12969;BME280;6549;53.128;8.182;2023-03-18T18:23:52;100876.03;;;14.12;100.00
12969;BME280;6549;53.128;8.182;2023-03-18T18:26:52;100883.56;;;14.08;100.00
12969;BME280;6549;53.128;8.182;2023-03-18T18:29:53;100880.88;;;14.01;100.00
12969;BME280;6549;53.128;8.182;2023-03-18T18:32:53;100880.09;;;14.01;100.00
12969;BME280;6549;53.128;8.182;2023-03-18T18:35:54;100882.44;;;13.99;100.00
12969;BME280;6549;53.128;8.182;2023-03-18T18:38:55;100878.56;;;13.92;100.00
12969;BME280;6549;53.128;8.182;2023-03-18T18:41:55;100877.81;;;13.88;100.00
12969;BME280;6549;53.128;8.182;2023-03-18T18:44:56;100882.59;;;13.77;100.00
12969;BME280;6549;53.128;8.182;2023-03-18T18:47:56;100889.31;;;13.80;100.00
12969;BME280;6549;53.128;8.182;2023-03-18T18:50:58;100886.88;;;13.85;100.00
12969;BME280;6549;53.128;8.182;2023-03-18T18:53:58;100882.94;;;13.86;100.00
12969;BME280;6549;53.128;8.182;2023-03-18T18:56:59;100883.78;;;13.80;100.00
12969;BME280;6549;53.128;8.182;2023-03-18T18:59:59;100890.16;;;13.70;100.00
12969;BME280;6549;53.128;8.182;2023-03-18T19:02:59;100884.25;;;13.64;100.00
12969;BME280;6549;53.128;8.182;2023-03-18T19:06:00;100890.19;;;13.59;100.00
12969;BME280;6549;53.128;8.182;2023-03-18T19:09:01;100883.53;;;13.53;100.00
12969;BME280;6549;53.128;8.182;2023-03-18T19:12:10;100880.00;;;13.45;100.00
12969;BME280;6549;53.128;8.182;2023-03-18T19:15:13;100884.38;;;13.39;100.00
12969;BME280;6549;53.128;8.182;2023-03-18T19:18:16;100879.66;;;13.33;100.00
12969;BME280;6549;53.128;8.182;2023-03-18T19:21:18;100879.31;;;13.27;100.00
12969;BME280;6549;53.128;8.182;2023-03-18T19:24:25;100884.47;;;13.22;100.00
12969;BME280;6549;53.128;8.182;2023-03-18T19:27:27;100884.88;;;13.17;100.00